createdAt,value
2023-05-03T00:02:12.414Z,98711.47
2023-05-03T00:04:48.375Z,98712.13
2023-05-03T00:07:23.140Z,98710.22
2023-05-03T00:09:56.305Z,98714.84
2023-05-03T00:12:29.331Z,98707.06
2023-05-03T00:15:02.327Z,98704.16
2023-05-03T00:17:35.629Z,98708.47
2023-05-03T00:20:09.780Z,98707.59
2023-05-03T00:22:44.056Z,98708.97
2023-05-03T00:25:17.209Z,98706.97
2023-05-03T00:27:50.172Z,98714.06
2023-05-03T00:30:23.145Z,98710.28
2023-05-03T00:32:56.194Z,98704.41
2023-05-03T00:35:29.460Z,98708.97
2023-05-03T00:38:03.894Z,98702.34
2023-05-03T00:40:36.847Z,98706.88
2023-05-03T00:43:13.237Z,98703.59
2023-05-03T00:45:47.545Z,98693.56
2023-05-03T00:48:20.549Z,98696.00
2023-05-03T00:50:54.398Z,98692.97
2023-05-03T00:53:31.421Z,98692.31
2023-05-03T00:56:05.898Z,98695.50
2023-05-03T00:58:40.535Z,98695.50
2023-05-03T01:01:14.263Z,98696.53
2023-05-03T01:03:48.132Z,98699.84
2023-05-03T01:06:34.036Z,98704.16
2023-05-03T01:09:17.780Z,98699.31
2023-05-03T01:12:04.129Z,98694.34
2023-05-03T01:14:47.503Z,98695.25
2023-05-03T01:17:29.194Z,98690.53
2023-05-03T01:20:08.674Z,98689.75
2023-05-03T01:22:48.306Z,98682.13
2023-05-03T01:25:22.586Z,98682.13
2023-05-03T01:27:55.591Z,98683.44
2023-05-03T01:30:29.693Z,98680.25
2023-05-03T01:33:11.969Z,98674.16
2023-05-03T01:35:54.790Z,98673.25
2023-05-03T01:38:29.532Z,98673.13
2023-05-03T01:41:08.114Z,98671.22
2023-05-03T01:43:42.658Z,98672.09
2023-05-03T01:46:16.408Z,98675.06
2023-05-03T01:48:49.483Z,98670.38
2023-05-03T01:51:22.456Z,98669.88
2023-05-03T01:53:55.576Z,98667.56
2023-05-03T01:56:30.754Z,98677.50
2023-05-03T01:59:03.896Z,98671.53
2023-05-03T02:01:36.880Z,98670.53
2023-05-03T02:04:10.799Z,98673.97
2023-05-03T02:06:43.813Z,98671.28
2023-05-03T02:09:17.149Z,98661.13
2023-05-03T02:11:51.467Z,98667.72
2023-05-03T02:14:24.512Z,98667.38
2023-05-03T02:16:57.525Z,98668.13
2023-05-03T02:19:30.493Z,98660.66
2023-05-03T02:22:04.188Z,98667.41
2023-05-03T02:24:37.347Z,98674.78
2023-05-03T02:27:11.655Z,98673.13
2023-05-03T02:29:44.624Z,98673.41
2023-05-03T02:32:17.730Z,98674.81
2023-05-03T02:34:51.097Z,98671.00
2023-05-03T02:37:24.055Z,98670.53
2023-05-03T02:39:57.085Z,98676.09
2023-05-03T02:42:31.636Z,98672.81
2023-05-03T02:45:05.067Z,98666.84
2023-05-03T02:47:38.068Z,98672.06
2023-05-03T02:50:11.577Z,98669.28
2023-05-03T02:52:44.585Z,98664.44
2023-05-03T02:55:17.757Z,98676.41
2023-05-03T02:57:52.022Z,98676.13
2023-05-03T03:00:24.976Z,98672.56
2023-05-03T03:02:58.044Z,98671.56
2023-05-03T03:05:31.227Z,98677.16
2023-05-03T03:08:04.577Z,98685.53
2023-05-03T03:10:37.550Z,98684.38
2023-05-03T03:13:11.840Z,98683.75
2023-05-03T03:15:44.894Z,98675.34
2023-05-03T03:18:19.701Z,98675.88
2023-05-03T03:20:52.829Z,98678.16
2023-05-03T03:23:25.777Z,98674.34
2023-05-03T03:25:58.848Z,98674.09
2023-05-03T03:28:33.464Z,98671.41
2023-05-03T03:31:06.571Z,98668.34
2023-05-03T03:33:39.570Z,98670.38
2023-05-03T03:36:12.495Z,98672.53
2023-05-03T03:38:45.625Z,98678.38
2023-05-03T03:41:18.775Z,98679.66
2023-05-03T03:43:53.064Z,98679.91
2023-05-03T03:46:26.083Z,98684.13
2023-05-03T03:48:59.046Z,98683.22
2023-05-03T03:51:32.197Z,98684.75
2023-05-03T03:54:05.992Z,98693.16
2023-05-03T03:56:38.944Z,98693.88
2023-05-03T03:59:13.477Z,98694.66
2023-05-03T04:01:46.877Z,98701.50
2023-05-03T04:04:19.828Z,98704.81
2023-05-03T04:06:52.908Z,98713.84
2023-05-03T04:09:25.968Z,98706.31
2023-05-03T04:11:58.874Z,98703.69
2023-05-03T04:14:34.281Z,98704.31
2023-05-03T04:17:07.315Z,98705.28
2023-05-03T04:19:40.461Z,98711.88
2023-05-03T04:22:13.381Z,98716.19
2023-05-03T04:24:46.359Z,98717.22
2023-05-03T04:27:19.341Z,98717.72
2023-05-03T04:29:53.658Z,98728.69
2023-05-03T04:32:27.065Z,98721.41
2023-05-03T04:35:00.353Z,98723.19
2023-05-03T04:37:33.459Z,98729.72
2023-05-03T04:40:09.598Z,98729.72
2023-05-03T04:42:42.894Z,98729.97
2023-05-03T04:45:18.665Z,98736.19
2023-05-03T04:47:51.783Z,98727.94
2023-05-03T04:50:24.987Z,98737.34
2023-05-03T04:52:58.259Z,98742.19
2023-05-03T04:55:31.215Z,98738.41
2023-05-03T04:58:04.182Z,98745.00
2023-05-03T05:00:38.805Z,98737.91
2023-05-03T05:03:12.096Z,98745.81
2023-05-03T05:05:47.354Z,98751.38
2023-05-03T05:08:20.865Z,98748.84
2023-05-03T05:10:53.832Z,98740.84
2023-05-03T05:13:26.822Z,98748.09
2023-05-03T05:16:01.154Z,98738.69
2023-05-03T05:18:34.972Z,98738.47
2023-05-03T05:21:07.949Z,98738.69
2023-05-03T05:23:40.944Z,98739.41
2023-05-03T05:26:13.881Z,98737.28
2023-05-03T05:28:46.842Z,98737.25
2023-05-03T05:31:21.864Z,98744.38
2023-05-03T05:33:54.855Z,98748.47
2023-05-03T05:36:28.132Z,98746.63
2023-05-03T05:39:01.232Z,98760.84
2023-05-03T05:41:34.320Z,98750.81
2023-05-03T05:44:07.945Z,98749.13
2023-05-03T05:46:42.277Z,98748.03
2023-05-03T05:49:15.212Z,98751.44
2023-05-03T05:51:48.193Z,98753.00
2023-05-03T05:54:21.150Z,98750.34
2023-05-03T05:56:54.207Z,98752.19
2023-05-03T05:59:27.171Z,98745.50
2023-05-03T06:02:01.585Z,98750.41
2023-05-03T06:04:34.551Z,98749.69
2023-05-03T06:07:07.495Z,98746.03
2023-05-03T06:09:40.654Z,98751.13
2023-05-03T06:12:13.576Z,98747.06
2023-05-03T06:15:01.438Z,98736.38
2023-05-03T06:17:36.756Z,98735.53
2023-05-03T06:20:12.794Z,98739.72
2023-05-03T06:22:45.789Z,98740.75
2023-05-03T06:25:18.855Z,98737.63
2023-05-03T06:27:51.800Z,98742.72
2023-05-03T06:30:25.734Z,98729.25
2023-05-03T06:33:00.281Z,98747.31
2023-05-03T06:35:33.473Z,98734.59
2023-05-03T06:38:06.378Z,98748.34
2023-05-03T06:40:41.290Z,98747.16
2023-05-03T06:43:14.409Z,98737.72
2023-05-03T06:45:48.118Z,98740.13
2023-05-03T06:48:22.524Z,98733.78
2023-05-03T06:50:55.732Z,98729.16
2023-05-03T06:53:28.937Z,98729.28
2023-05-03T06:56:03.643Z,98725.94
2023-05-03T06:58:36.655Z,98721.78
2023-05-03T07:01:09.675Z,98729.06
2023-05-03T07:03:44.137Z,98726.47
2023-05-03T07:06:18.377Z,98722.88
2023-05-03T07:08:52.304Z,98721.53
2023-05-03T07:11:25.386Z,98721.78
2023-05-03T07:13:58.302Z,98718.41
2023-05-03T07:16:31.300Z,98717.97
2023-05-03T07:19:05.590Z,98718.34
2023-05-03T07:21:38.718Z,98710.22
2023-05-03T07:24:12.839Z,98712.06
2023-05-03T07:26:47.799Z,98705.13
2023-05-03T07:29:22.336Z,98710.72
2023-05-03T07:31:55.350Z,98702.13
2023-05-03T07:34:29.623Z,98703.09
2023-05-03T07:37:02.545Z,98685.25
2023-05-03T07:39:36.290Z,98695.69
2023-05-03T07:42:09.355Z,98698.72
2023-05-03T07:44:42.321Z,98691.94
2023-05-03T07:47:15.290Z,98697.09
2023-05-03T07:49:50.819Z,98693.06
2023-05-03T07:52:23.791Z,98689.47
2023-05-03T07:54:56.748Z,98688.47
2023-05-03T07:57:29.860Z,98687.09
2023-05-03T08:00:04.520Z,98687.34
2023-05-03T08:02:37.853Z,98690.22
2023-05-03T08:05:14.835Z,98694.72
2023-05-03T08:07:48.341Z,98686.31
2023-05-03T08:10:21.344Z,98693.59
2023-05-03T08:12:54.261Z,98690.72
2023-05-03T08:15:28.025Z,98690.06
2023-05-03T08:18:01.279Z,98691.63
2023-05-03T08:20:36.887Z,98699.09
2023-05-03T08:23:11.035Z,98696.84
2023-05-03T08:25:44.824Z,98704.69
2023-05-03T08:28:17.757Z,98697.78
2023-05-03T08:30:52.352Z,98704.63
2023-05-03T08:33:25.494Z,98704.47
2023-05-03T08:36:00.077Z,98706.00
2023-05-03T08:38:33.359Z,98705.50
2023-05-03T08:41:20.314Z,98710.81
2023-05-03T08:43:55.106Z,98709.38
2023-05-03T08:46:29.420Z,98722.00
2023-05-03T08:49:02.904Z,98715.34
2023-05-03T08:51:41.930Z,98711.19
2023-05-03T08:54:16.865Z,98713.16
2023-05-03T08:56:50.680Z,98722.00
2023-05-03T08:59:24.581Z,98714.44
2023-05-03T09:01:57.592Z,98718.59
2023-05-03T09:04:34.894Z,98716.56
2023-05-03T09:07:15.820Z,98718.59
2023-05-03T09:09:49.083Z,98721.78
2023-05-03T09:12:36.756Z,98715.06
2023-05-03T09:15:22.077Z,98720.06
2023-05-03T09:18:13.787Z,98715.81
2023-05-03T09:20:52.743Z,98726.13
2023-05-03T09:23:33.844Z,98711.53
2023-05-03T09:26:07.370Z,98710.72
2023-05-03T09:28:43.655Z,98714.34
2023-05-03T09:31:16.671Z,98715.44
2023-05-03T09:33:49.921Z,98713.94
2023-05-03T09:36:23.297Z,98714.53
2023-05-03T09:38:57.594Z,98714.91
2023-05-03T09:41:32.224Z,98714.53
2023-05-03T09:44:06.626Z,98703.53
2023-05-03T09:46:39.644Z,98702.84
2023-05-03T09:49:12.642Z,98696.19
2023-05-03T09:51:46.544Z,98699.53
2023-05-03T09:54:21.654Z,98700.53
2023-05-03T09:56:56.304Z,98700.53
2023-05-03T09:59:29.500Z,98705.44
2023-05-03T10:02:05.978Z,98691.84
2023-05-03T10:04:45.024Z,98698.16
2023-05-03T10:07:21.264Z,98685.72
2023-05-03T10:09:57.099Z,98684.19
2023-05-03T10:12:30.512Z,98682.00
2023-05-03T10:15:07.236Z,98675.59
2023-05-03T10:17:47.094Z,98671.03
2023-05-03T10:20:29.428Z,98670.97
2023-05-03T10:23:13.941Z,98668.94
2023-05-03T10:26:16.124Z,98658.44
2023-05-03T10:28:50.109Z,98662.69
2023-05-03T10:31:47.007Z,98664.25
2023-05-03T10:34:25.181Z,98651.53
2023-05-03T10:36:58.217Z,98658.44
2023-05-03T10:39:32.499Z,98655.59
2023-05-03T10:42:09.852Z,98662.66
2023-05-03T10:44:53.065Z,98659.94
2023-05-03T10:47:26.456Z,98655.47
2023-05-03T10:50:28.619Z,98650.63
2023-05-03T10:53:01.623Z,98658.28
2023-05-03T10:55:35.842Z,98646.59
2023-05-03T10:58:16.672Z,98644.09
2023-05-03T11:00:52.154Z,98642.66
2023-05-03T11:03:44.762Z,98648.38
2023-05-03T11:06:34.401Z,98638.16
2023-05-03T11:09:12.085Z,98639.63
2023-05-03T11:11:46.068Z,98638.59
2023-05-03T11:14:20.419Z,98638.03
2023-05-03T11:16:57.207Z,98644.97
2023-05-03T11:19:30.716Z,98627.41
2023-05-03T11:22:03.904Z,98628.44
2023-05-03T11:24:37.016Z,98629.69
2023-05-03T11:27:13.901Z,98624.53
2023-05-03T11:29:51.141Z,98617.72
2023-05-03T11:32:28.099Z,98619.72
2023-05-03T11:35:05.666Z,98622.56
2023-05-03T11:37:38.975Z,98621.53
2023-05-03T11:40:18.148Z,98608.81
2023-05-03T11:42:55.993Z,98608.81
2023-05-03T11:45:33.305Z,98596.25
2023-05-03T11:48:07.008Z,98595.28
2023-05-03T11:50:48.196Z,98596.19
2023-05-03T11:53:21.711Z,98594.84
2023-05-03T11:55:55.892Z,98592.38
2023-05-03T11:58:29.499Z,98593.22
2023-05-03T12:01:05.852Z,98596.56
2023-05-03T12:03:38.895Z,98593.00
2023-05-03T12:06:13.742Z,98593.59
2023-05-03T12:08:47.152Z,98593.69
2023-05-03T12:11:21.586Z,98589.78
2023-05-03T12:14:02.320Z,98590.75
2023-05-03T12:16:50.789Z,98583.13
2023-05-03T12:19:29.569Z,98576.56
2023-05-03T12:22:24.032Z,98565.22
2023-05-03T12:24:58.445Z,98562.44
2023-05-03T12:27:32.870Z,98562.94
2023-05-03T12:32:44.385Z,98554.22
2023-05-03T12:35:21.086Z,98560.97
2023-05-03T12:40:34.045Z,98548.28
2023-05-03T12:43:07.791Z,98552.88
2023-05-03T12:45:41.436Z,98544.94
2023-05-03T12:48:16.169Z,98537.94
2023-05-03T12:50:51.870Z,98538.47
2023-05-03T12:53:26.465Z,98543.13
2023-05-03T12:55:59.683Z,98542.44
2023-05-03T12:58:57.885Z,98540.13
2023-05-03T13:06:42.846Z,98546.50
2023-05-03T13:09:21.172Z,98546.78
2023-05-03T13:11:55.393Z,98536.91
2023-05-03T13:14:29.864Z,98537.44
2023-05-03T13:17:03.116Z,98533.03
2023-05-03T13:19:37.738Z,98532.38
2023-05-03T13:22:11.385Z,98525.66
2023-05-03T13:24:47.208Z,98519.91
2023-05-03T13:27:20.324Z,98513.66
2023-05-03T13:29:53.284Z,98503.69
2023-05-03T13:32:26.334Z,98506.03
2023-05-03T13:35:00.694Z,98509.63
2023-05-03T13:37:33.716Z,98506.63
2023-05-03T13:40:08.337Z,98501.13
2023-05-03T13:42:41.461Z,98496.81
2023-05-03T13:45:15.048Z,98492.59
2023-05-03T13:48:09.151Z,98491.41
2023-05-03T13:50:42.380Z,98498.88
2023-05-03T13:53:15.470Z,98494.63
2023-05-03T13:55:48.434Z,98497.41
2023-05-03T13:58:21.515Z,98494.53
2023-05-03T14:00:54.516Z,98489.38
2023-05-03T14:03:27.726Z,98496.25
2023-05-03T14:06:02.533Z,98483.91
2023-05-03T14:08:35.531Z,98483.22
2023-05-03T14:11:14.525Z,98483.22
2023-05-03T14:13:55.370Z,98490.16
2023-05-03T14:19:06.068Z,98484.66
2023-05-03T14:21:42.028Z,98489.25
2023-05-03T14:24:15.021Z,98478.34
2023-05-03T14:26:48.244Z,98473.59
2023-05-03T14:29:21.369Z,98472.88
2023-05-03T14:31:54.568Z,98467.78
2023-05-03T14:34:28.993Z,98472.47
2023-05-03T14:37:03.421Z,98469.75
2023-05-03T14:39:37.302Z,98468.16
2023-05-03T14:42:12.100Z,98463.09
2023-05-03T14:44:45.134Z,98460.94
2023-05-03T14:47:18.105Z,98463.97
2023-05-03T14:49:52.102Z,98465.28
2023-05-03T14:52:26.491Z,98452.00
2023-05-03T14:54:59.497Z,98457.16
2023-05-03T14:57:33.548Z,98448.94
2023-05-03T15:00:14.295Z,98445.47
2023-05-03T15:02:47.557Z,98442.38
2023-05-03T15:05:20.981Z,98436.16
2023-05-03T15:07:55.318Z,98433.19
2023-05-03T15:10:28.337Z,98441.56
2023-05-03T15:13:01.477Z,98438.34
2023-05-03T15:15:34.611Z,98435.91
2023-05-03T15:18:09.452Z,98432.84
2023-05-03T15:20:42.628Z,98434.50
2023-05-03T15:23:16.923Z,98434.84
2023-05-03T15:25:49.881Z,98435.78
2023-05-03T15:28:22.915Z,98432.75
2023-05-03T15:30:55.969Z,98436.50
2023-05-03T15:33:28.969Z,98438.66
2023-05-03T15:36:01.918Z,98436.28
2023-05-03T15:38:36.273Z,98439.28
2023-05-03T15:41:09.276Z,98433.00
2023-05-03T15:43:42.232Z,98440.41
2023-05-03T15:46:15.924Z,98431.13
2023-05-03T15:48:48.978Z,98426.94
2023-05-03T15:51:22.033Z,98428.78
2023-05-03T15:53:56.427Z,98427.41
2023-05-03T15:56:29.421Z,98424.28
2023-05-03T15:59:02.373Z,98425.44
2023-05-03T16:01:35.375Z,98432.63
2023-05-03T16:04:08.877Z,98433.72
2023-05-03T16:06:42.195Z,98424.53
2023-05-03T16:09:16.575Z,98422.59
2023-05-03T16:11:49.539Z,98430.63
2023-05-03T16:14:22.509Z,98413.91
2023-05-03T16:16:55.690Z,98423.25
2023-05-03T16:19:28.647Z,98422.59
2023-05-03T16:22:01.705Z,98412.28
2023-05-03T16:24:36.207Z,98408.22
2023-05-03T16:27:09.320Z,98411.56
2023-05-03T16:29:42.289Z,98410.09
2023-05-03T16:32:16.735Z,98402.69
2023-05-03T16:34:50.527Z,98400.41
2023-05-03T16:37:23.595Z,98401.47
2023-05-03T16:39:58.166Z,98397.34
2023-05-03T16:42:32.123Z,98401.72
2023-05-03T16:45:06.759Z,98403.75
2023-05-03T16:47:40.220Z,98408.13
2023-05-03T16:50:13.859Z,98407.75
2023-05-03T16:52:46.827Z,98410.34
2023-05-03T16:55:24.096Z,98404.94
2023-05-03T16:57:57.090Z,98408.03
2023-05-03T17:00:30.380Z,98410.00
2023-05-03T17:03:03.403Z,98411.34
2023-05-03T17:05:37.543Z,98412.69
2023-05-03T17:08:11.626Z,98400.78
2023-05-03T17:10:45.881Z,98398.44
2023-05-03T17:13:18.894Z,98402.84
2023-05-03T17:15:51.880Z,98403.28
2023-05-03T17:18:24.863Z,98405.03
2023-05-03T17:21:01.392Z,98406.78
2023-05-03T17:23:36.168Z,98401.78
2023-05-03T17:26:12.289Z,98403.31
2023-05-03T17:28:45.584Z,98398.94
2023-05-03T17:31:18.605Z,98405.19
2023-05-03T17:33:52.716Z,98400.41
2023-05-03T17:36:25.644Z,98405.25
2023-05-03T17:38:58.628Z,98406.31
2023-05-03T17:41:32.893Z,98404.56
2023-05-03T17:44:05.944Z,98404.31
2023-05-03T17:46:38.869Z,98403.84
2023-05-03T17:49:11.869Z,98411.66
2023-05-03T17:51:44.820Z,98409.97
2023-05-03T17:54:17.762Z,98417.38
2023-05-03T17:56:52.179Z,98405.84
2023-05-03T17:59:25.224Z,98411.09
2023-05-03T18:01:58.198Z,98414.19
2023-05-03T18:04:31.478Z,98405.25
2023-05-03T18:07:04.388Z,98407.03
2023-05-03T18:09:37.283Z,98413.25
2023-05-03T18:12:11.578Z,98412.50
2023-05-03T18:14:44.518Z,98406.84
2023-05-03T18:17:17.463Z,98421.47
2023-05-03T18:19:50.415Z,98421.16
2023-05-03T18:22:25.698Z,98423.56
2023-05-03T18:25:01.748Z,98423.22
2023-05-03T18:27:37.562Z,98430.91
2023-05-03T18:30:12.596Z,98432.59
2023-05-03T18:32:45.596Z,98430.03
2023-05-03T18:35:18.686Z,98433.22
2023-05-03T18:37:53.097Z,98438.59
2023-05-03T18:40:26.128Z,98434.94
2023-05-03T18:43:00.428Z,98431.47
2023-05-03T18:45:33.412Z,98431.78
2023-05-03T18:48:06.648Z,98438.44
2023-05-03T18:50:42.908Z,98435.59
2023-05-03T18:53:15.890Z,98442.91
2023-05-03T18:55:52.018Z,98440.03
2023-05-03T18:58:26.341Z,98445.00
2023-05-03T19:01:00.476Z,98441.22
2023-05-03T19:03:33.888Z,98447.63
2023-05-03T19:06:08.022Z,98449.28
2023-05-03T19:08:43.502Z,98453.38
2023-05-03T19:11:17.529Z,98457.53
2023-05-03T19:13:51.926Z,98452.28
2023-05-03T19:16:24.904Z,98456.56
2023-05-03T19:18:58.766Z,98462.13
2023-05-03T19:21:32.254Z,98462.69
2023-05-03T19:24:05.852Z,98466.50
2023-05-03T19:26:39.052Z,98474.91
2023-05-03T19:29:13.384Z,98470.66
2023-05-03T19:31:46.425Z,98469.44
2023-05-03T19:34:19.390Z,98470.69
2023-05-03T19:36:52.355Z,98471.03
2023-05-03T19:39:25.502Z,98475.03
2023-05-03T19:41:59.642Z,98474.13
2023-05-03T19:44:34.069Z,98477.66
2023-05-03T19:47:07.052Z,98469.00
2023-05-03T19:49:40.720Z,98474.06
2023-05-03T19:52:13.657Z,98485.72
2023-05-03T19:54:46.642Z,98474.03
2023-05-03T19:57:19.621Z,98470.69
2023-05-03T19:59:53.942Z,98480.06
2023-05-03T20:02:27.211Z,98478.69
2023-05-03T20:05:00.361Z,98481.72
2023-05-03T20:07:33.937Z,98486.25
2023-05-03T20:10:07.978Z,98486.75
2023-05-03T20:12:40.944Z,98486.03
2023-05-03T20:15:15.567Z,98484.81
2023-05-03T20:17:48.571Z,98488.91
2023-05-03T20:20:21.589Z,98492.19
2023-05-03T20:22:54.510Z,98484.38
2023-05-03T20:25:27.490Z,98497.75
2023-05-03T20:28:00.443Z,98490.69
2023-05-03T20:30:34.966Z,98485.97
2023-05-03T20:33:08.098Z,98493.16
2023-05-03T20:35:41.125Z,98487.56
2023-05-03T20:38:14.438Z,98487.56
2023-05-03T20:40:47.398Z,98487.22
2023-05-03T20:43:20.509Z,98481.91
2023-05-03T20:45:54.855Z,98484.28
2023-05-03T20:48:28.541Z,98494.38
2023-05-03T20:51:01.560Z,98483.75
2023-05-03T20:53:34.512Z,98485.84
2023-05-03T20:56:07.905Z,98490.63
2023-05-03T20:58:40.907Z,98493.59
2023-05-03T21:01:15.221Z,98479.63
2023-05-03T21:03:48.313Z,98502.13
2023-05-03T21:06:21.277Z,98492.47
2023-05-03T21:08:54.226Z,98496.53
2023-05-03T21:11:27.192Z,98492.63
2023-05-03T21:14:01.869Z,98489.38
2023-05-03T21:16:36.537Z,98495.59
2023-05-03T21:19:09.524Z,98498.75
2023-05-03T21:21:42.557Z,98491.25
2023-05-03T21:24:15.537Z,98492.53
2023-05-03T21:26:48.488Z,98495.41
2023-05-03T21:29:21.439Z,98489.09
2023-05-03T21:31:55.792Z,98482.22
2023-05-03T21:34:28.779Z,98493.03
2023-05-03T21:37:01.812Z,98491.78
2023-05-03T21:39:34.757Z,98484.03
2023-05-03T21:42:07.751Z,98477.91
2023-05-03T21:44:40.777Z,98479.00
2023-05-03T21:47:15.428Z,98486.78
2023-05-03T21:49:48.365Z,98471.81
2023-05-03T21:52:21.443Z,98477.72
2023-05-03T21:54:54.530Z,98475.94
2023-05-03T21:57:27.600Z,98464.13
2023-05-03T22:00:00.632Z,98464.72
2023-05-03T22:02:35.270Z,98469.81
2023-05-03T22:05:09.602Z,98467.66
2023-05-03T22:07:42.522Z,98463.00
2023-05-03T22:10:15.574Z,98463.63
2023-05-03T22:12:48.552Z,98466.97
2023-05-03T22:15:21.693Z,98467.66
2023-05-03T22:17:56.579Z,98464.28
2023-05-03T22:20:31.413Z,98469.28
2023-05-03T22:23:04.521Z,98464.16
2023-05-03T22:25:37.454Z,98463.69
2023-05-03T22:28:10.389Z,98462.69
2023-05-03T22:30:43.342Z,98468.59
2023-05-03T22:33:17.729Z,98465.72
2023-05-03T22:35:50.755Z,98467.28
2023-05-03T22:38:23.707Z,98459.13
2023-05-03T22:40:56.678Z,98458.94
2023-05-03T22:43:29.618Z,98454.38
2023-05-03T22:46:03.009Z,98457.53
2023-05-03T22:48:37.388Z,98454.16
2023-05-03T22:51:10.531Z,98447.00
2023-05-03T22:53:43.495Z,98449.25
2023-05-03T22:56:16.427Z,98448.34
2023-05-03T22:58:49.433Z,98449.94
2023-05-03T23:01:22.512Z,98449.97
2023-05-03T23:03:57.733Z,98447.31
2023-05-03T23:06:30.774Z,98444.34
2023-05-03T23:09:04.404Z,98444.16
2023-05-03T23:11:37.398Z,98446.28
2023-05-03T23:14:10.330Z,98446.50
2023-05-03T23:16:43.274Z,98446.28
2023-05-03T23:19:17.595Z,98438.34
2023-05-03T23:21:50.861Z,98438.41
2023-05-03T23:24:23.789Z,98434.53
2023-05-03T23:26:56.958Z,98441.19
2023-05-03T23:29:30.502Z,98446.63
2023-05-03T23:32:04.163Z,98440.50
2023-05-03T23:34:39.286Z,98436.31
2023-05-03T23:37:12.237Z,98430.69
2023-05-03T23:39:45.364Z,98430.13
2023-05-03T23:42:18.411Z,98442.50
2023-05-03T23:44:55.501Z,98439.75
2023-05-03T23:47:29.012Z,98432.53
2023-05-03T23:50:03.617Z,98440.19
2023-05-03T23:52:37.024Z,98438.09
2023-05-03T23:55:11.127Z,98432.88
2023-05-03T23:57:44.073Z,98442.38
